Stations météo

Publicité
Puerto Plata, République Dominicaine (78457): Température de l'air & dewpoint: 19.07.2017 04:00:00 - 25.07.2017 04:00:00 (AST)Puerto Plata, République Dominicaine (78457): Vitesse du vent: 19.07.2017 04:00:00 - 25.07.2017 04:00:00 (AST)Puerto Plata, République Dominicaine (78457): Direction du vent: 19.07.2017 04:00:00 - 25.07.2017 04:00:00 (AST)Puerto Plata, République Dominicaine (78457): visibility: 19.07.2017 04:00:00 - 25.07.2017 04:00:00 (AST)
Date & Time tt [°C] td [°C] ff [km/h] ff [knt] dd vv [km]
25.07.2017 04:00:00 - - - - - -
25.07.2017 03:00:00 - - - - - -
25.07.2017 02:00:00 26,0 24,0 0 0 N 10
25.07.2017 01:00:00 - - - - - -
25.07.2017 00:00:00 - - - - - -
24.07.2017 23:00:00 27,0 25,0 0 0 N 10
24.07.2017 22:00:00 - - - - - -
24.07.2017 21:00:00 - - - - - -
24.07.2017 20:00:00 28,0 25,0 15 8 S 10
24.07.2017 19:00:00 29,0 25,0 15 8 E 10
24.07.2017 18:00:00 30,0 26,0 28 15 S 10
24.07.2017 17:00:00 31,0 26,0 18 10 E 10
24.07.2017 16:00:00 32,0 26,0 28 15 E 10
24.07.2017 15:00:00 32,0 26,0 28 15 E 10
24.07.2017 14:00:00 32,0 26,0 22 12 E 10
24.07.2017 13:00:00 32,0 26,0 18 10 E 10
24.07.2017 12:00:00 31,0 26,0 26 14 E 10
24.07.2017 11:00:00 30,0 25,0 18 10 E 10
24.07.2017 10:00:00 29,0 25,0 22 12 ENE 10
24.07.2017 09:00:00 28,0 25,0 18 10 ESE 10
24.07.2017 08:00:00 24,0 25,0 8 4 ESE 10
24.07.2017 07:00:00 24,0 23,0 0 0 N 10
24.07.2017 06:00:00 - - - - - -
24.07.2017 05:00:00 24,0 23,0 178 96 ESE 10
24.07.2017 04:00:00 - - - - - -
24.07.2017 03:00:00 - - - - - -
24.07.2017 02:00:00 26,0 25,0 0 0 N 10
24.07.2017 01:00:00 - - - - - -
24.07.2017 00:00:00 - - - - - -
23.07.2017 23:00:00 28,0 25,0 22 12 E 10
23.07.2017 22:00:00 - - - - - -
23.07.2017 21:00:00 - - - - - -
23.07.2017 20:00:00 28,0 25,0 22 12 E 10
23.07.2017 19:00:00 29,0 25,0 22 12 E 10
23.07.2017 18:00:00 29,0 25,0 28 15 E 10
23.07.2017 17:00:00 30,0 26,0 26 14 ENE 10
23.07.2017 16:00:00 30,0 27,0 28 15 ENE 10
23.07.2017 15:00:00 31,0 27,0 18 10 ENE 10
23.07.2017 14:00:00 31,0 27,0 26 14 ENE 10
23.07.2017 13:00:00 31,0 26,0 13 7 E 10
23.07.2017 12:00:00 32,0 26,0 11 6 E 10
23.07.2017 11:00:00 31,0 25,0 18 10 E 10
23.07.2017 10:00:00 30,0 25,0 18 10 E 10
23.07.2017 09:00:00 30,0 25,0 0 0 N 10
23.07.2017 08:00:00 26,0 24,0 0 0 N 10
23.07.2017 07:00:00 24,0 22,0 0 0 N 10
23.07.2017 06:00:00 - - - - - -
23.07.2017 05:00:00 23,0 22,0 0 0 N 10
23.07.2017 04:00:00 - - - - - -
23.07.2017 03:00:00 - - - - - -
23.07.2017 02:00:00 24,0 23,0 0 0 N 10
23.07.2017 01:00:00 - - - - - -
23.07.2017 00:00:00 - - - - - -
22.07.2017 23:00:00 26,0 25,0 0 0 N 10
22.07.2017 22:00:00 - - - - - -
22.07.2017 21:00:00 - - - - - -
22.07.2017 20:00:00 28,0 25,0 15 8 E 10
22.07.2017 19:00:00 28,0 26,0 18 10 E 10
22.07.2017 18:00:00 29,0 25,0 24 13 E 10
22.07.2017 17:00:00 30,0 26,0 22 12 E 10
22.07.2017 16:00:00 31,0 25,0 24 13 E 10
22.07.2017 15:00:00 31,0 25,0 29 16 E 10
22.07.2017 14:00:00 31,0 25,0 18 10 E 10
22.07.2017 13:00:00 32,0 26,0 18 10 E 10
22.07.2017 12:00:00 31,0 25,0 22 12 E 10
22.07.2017 11:00:00 30,0 25,0 18 10 ESE 10
22.07.2017 10:00:00 28,0 24,0 15 8 E 10
22.07.2017 09:00:00 27,0 23,0 167 90 N 10
22.07.2017 08:00:00 26,0 24,0 0 0 N 10
22.07.2017 07:00:00 25,0 24,0 0 0 N 10
22.07.2017 06:00:00 - - - - - -
22.07.2017 05:00:00 22,0 22,0 8 4 S 10
22.07.2017 04:00:00 - - - - - -
22.07.2017 03:00:00 - - - - - -
22.07.2017 02:00:00 25,0 24,0 0 0 N 10
22.07.2017 01:00:00 - - - - - -
22.07.2017 00:00:00 - - - - - -
21.07.2017 23:00:00 26,0 25,0 0 0 N 10
21.07.2017 22:00:00 - - - - - -
21.07.2017 21:00:00 - - - - - -
21.07.2017 20:00:00 28,0 25,0 15 8 E 10
21.07.2017 19:00:00 29,0 25,0 13 7 E 10
21.07.2017 18:00:00 29,0 25,0 15 8 E 10
21.07.2017 17:00:00 30,0 26,0 11 6 E 10
21.07.2017 16:00:00 29,0 25,0 11 6 E 10
21.07.2017 15:00:00 30,0 25,0 15 8 E 10
21.07.2017 14:00:00 29,0 25,0 18 10 E 10
21.07.2017 13:00:00 28,0 26,0 18 10 E 10
21.07.2017 12:00:00 30,0 25,0 18 10 E 7
21.07.2017 11:00:00 28,0 26,0 0 0 N 10
21.07.2017 10:00:00 - - - - - -
21.07.2017 09:00:00 27,0 25,0 9 5 ESE 10
21.07.2017 08:00:00 25,0 24,0 0 0 N 10
21.07.2017 07:00:00 24,0 24,0 0 0 N 10
21.07.2017 06:00:00 - - - - - -
21.07.2017 05:00:00 24,0 23,0 0 0 N 10
21.07.2017 04:00:00 - - - - - -
21.07.2017 03:00:00 - - - - - -
21.07.2017 02:00:00 25,0 24,0 0 0 N 10
21.07.2017 01:00:00 - - - - - -
21.07.2017 00:00:00 - - - - - -
20.07.2017 23:00:00 26,0 25,0 0 0 N 10
20.07.2017 22:00:00 - - - - - -
20.07.2017 21:00:00 - - - - - -
20.07.2017 20:00:00 28,0 25,0 11 6 E 5
20.07.2017 19:00:00 29,0 25,0 18 10 E 5
20.07.2017 18:00:00 31,0 26,0 18 10 E 5
20.07.2017 17:00:00 31,0 26,0 18 10 E 5
20.07.2017 16:00:00 32,0 26,0 18 10 E 10
20.07.2017 15:00:00 32,0 25,0 28 15 E 10
20.07.2017 14:00:00 31,0 25,0 28 15 E 10
20.07.2017 13:00:00 31,0 24,0 28 15 E 10
20.07.2017 12:00:00 31,0 24,0 18 10 E 10
20.07.2017 11:00:00 31,0 24,0 24 13 ENE 10
20.07.2017 10:00:00 30,0 23,0 18 10 E 10
20.07.2017 09:00:00 28,0 24,0 22 12 ESE 10
20.07.2017 08:00:00 26,0 25,0 0 0 N 10
20.07.2017 07:00:00 26,0 25,0 0 0 N 10
20.07.2017 06:00:00 - - - - - -
20.07.2017 05:00:00 26,0 25,0 0 0 N 10
20.07.2017 04:00:00 - - - - - -
20.07.2017 03:00:00 - - - - - -
20.07.2017 02:00:00 26,0 25,0 0 0 N 10
20.07.2017 01:00:00 - - - - - -
20.07.2017 00:00:00 - - - - - -
19.07.2017 23:00:00 27,0 25,0 0 0 N 10
19.07.2017 22:00:00 - - - - - -
19.07.2017 21:00:00 - - - - - -
19.07.2017 20:00:00 28,0 25,0 18 10 E 10
19.07.2017 19:00:00 28,0 25,0 26 14 E 10
19.07.2017 18:00:00 29,0 25,0 28 15 E 10
19.07.2017 17:00:00 30,0 25,0 34 18 E 10
19.07.2017 16:00:00 31,0 25,0 37 20 E 10
19.07.2017 15:00:00 33,0 26,0 28 15 E 10
19.07.2017 14:00:00 33,0 26,0 28 15 E 10
19.07.2017 13:00:00 32,0 25,0 18 10 E 10
19.07.2017 12:00:00 32,0 27,0 28 15 E 10
19.07.2017 11:00:00 30,0 26,0 18 10 ESE 10
19.07.2017 10:00:00 28,0 27,0 18 10 ESE 10
19.07.2017 09:00:00 28,0 26,0 18 10 E 10
19.07.2017 08:00:00 27,0 26,0 0 0 N 10
19.07.2017 07:00:00 26,0 25,0 0 0 N 10
19.07.2017 06:00:00 - - - - - -
19.07.2017 05:00:00 26,0 25,0 0 0 N 7
19.07.2017 04:00:00 - - - - - -

tt = Température de l'air
td = dewpoint
ff = Vitesse du vent
dd = Direction du vent
vv = visibility

stations d'obs. à proximité